sensor_id;sensor_type;location;lat;lon;timestamp;P1;durP1;ratioP1;P2;durP2;ratioP2
1294;SDS011;640;48.310;11.728;2022-07-29T00:01:40;2.60;;;1.70;;
1294;SDS011;640;48.310;11.728;2022-07-29T00:04:10;4.45;;;1.38;;
1294;SDS011;640;48.310;11.728;2022-07-29T00:06:40;1.70;;;1.33;;
1294;SDS011;640;48.310;11.728;2022-07-29T00:09:09;1.98;;;1.42;;
1294;SDS011;640;48.310;11.728;2022-07-29T00:11:38;1.83;;;1.52;;
1294;SDS011;640;48.310;11.728;2022-07-29T00:14:06;2.00;;;1.63;;
1294;SDS011;640;48.310;11.728;2022-07-29T00:16:35;2.10;;;1.50;;
1294;SDS011;640;48.310;11.728;2022-07-29T00:19:04;1.98;;;1.40;;
1294;SDS011;640;48.310;11.728;2022-07-29T00:21:33;2.13;;;1.30;;
1294;SDS011;640;48.310;11.728;2022-07-29T00:24:02;2.78;;;1.63;;
1294;SDS011;640;48.310;11.728;2022-07-29T00:26:32;2.40;;;1.30;;
1294;SDS011;640;48.310;11.728;2022-07-29T00:29:00;2.83;;;1.40;;
1294;SDS011;640;48.310;11.728;2022-07-29T00:31:50;2.03;;;1.35;;
1294;SDS011;640;48.310;11.728;2022-07-29T00:34:19;2.38;;;1.40;;
1294;SDS011;640;48.310;11.728;2022-07-29T00:37:04;2.30;;;1.23;;
1294;SDS011;640;48.310;11.728;2022-07-29T00:39:33;1.58;;;1.45;;
1294;SDS011;640;48.310;11.728;2022-07-29T00:42:04;2.30;;;1.50;;
1294;SDS011;640;48.310;11.728;2022-07-29T00:44:35;1.63;;;1.48;;
1294;SDS011;640;48.310;11.728;2022-07-29T00:47:05;2.13;;;1.55;;
1294;SDS011;640;48.310;11.728;2022-07-29T00:49:33;2.83;;;1.85;;
1294;SDS011;640;48.310;11.728;2022-07-29T00:52:03;2.30;;;1.63;;
1294;SDS011;640;48.310;11.728;2022-07-29T00:54:33;2.53;;;1.77;;
1294;SDS011;640;48.310;11.728;2022-07-29T00:57:12;2.10;;;1.63;;
1294;SDS011;640;48.310;11.728;2022-07-29T00:59:40;2.60;;;1.63;;
1294;SDS011;640;48.310;11.728;2022-07-29T01:02:08;3.00;;;1.90;;
1294;SDS011;640;48.310;11.728;2022-07-29T01:04:37;1.85;;;1.63;;
1294;SDS011;640;48.310;11.728;2022-07-29T01:07:05;2.38;;;1.80;;
1294;SDS011;640;48.310;11.728;2022-07-29T01:09:35;2.80;;;1.63;;
1294;SDS011;640;48.310;11.728;2022-07-29T01:12:15;2.20;;;1.70;;
1294;SDS011;640;48.310;11.728;2022-07-29T01:14:45;3.20;;;2.00;;
1294;SDS011;640;48.310;11.728;2022-07-29T01:17:16;2.88;;;1.90;;
1294;SDS011;640;48.310;11.728;2022-07-29T01:19:51;2.03;;;1.80;;
1294;SDS011;640;48.310;11.728;2022-07-29T01:22:29;2.40;;;1.80;;
1294;SDS011;640;48.310;11.728;2022-07-29T01:25:12;2.05;;;1.42;;
1294;SDS011;640;48.310;11.728;2022-07-29T01:27:55;3.00;;;1.83;;
1294;SDS011;640;48.310;11.728;2022-07-29T01:30:37;4.03;;;1.80;;
1294;SDS011;640;48.310;11.728;2022-07-29T01:33:10;2.28;;;1.88;;
1294;SDS011;640;48.310;11.728;2022-07-29T01:36:01;2.28;;;1.98;;
1294;SDS011;640;48.310;11.728;2022-07-29T01:38:30;3.13;;;2.10;;
1294;SDS011;640;48.310;11.728;2022-07-29T01:40:59;1.85;;;1.73;;
1294;SDS011;640;48.310;11.728;2022-07-29T01:43:34;2.80;;;2.00;;
1294;SDS011;640;48.310;11.728;2022-07-29T01:46:09;2.15;;;1.95;;
1294;SDS011;640;48.310;11.728;2022-07-29T01:48:42;2.75;;;2.35;;
1294;SDS011;640;48.310;11.728;2022-07-29T01:51:16;2.75;;;2.10;;
1294;SDS011;640;48.310;11.728;2022-07-29T01:53:48;2.67;;;1.98;;
1294;SDS011;640;48.310;11.728;2022-07-29T01:56:20;2.67;;;2.00;;
1294;SDS011;640;48.310;11.728;2022-07-29T02:01:20;2.53;;;1.88;;
1294;SDS011;640;48.310;11.728;2022-07-29T02:03:50;2.45;;;2.20;;
1294;SDS011;640;48.310;11.728;2022-07-29T02:06:20;3.20;;;2.38;;
1294;SDS011;640;48.310;11.728;2022-07-29T02:08:49;2.65;;;2.00;;
1294;SDS011;640;48.310;11.728;2022-07-29T02:11:19;4.90;;;2.10;;
1294;SDS011;640;48.310;11.728;2022-07-29T02:13:47;3.70;;;2.10;;
1294;SDS011;640;48.310;11.728;2022-07-29T02:16:17;3.15;;;1.95;;
1294;SDS011;640;48.310;11.728;2022-07-29T02:18:49;3.45;;;2.17;;
1294;SDS011;640;48.310;11.728;2022-07-29T02:21:21;2.08;;;1.80;;
1294;SDS011;640;48.310;11.728;2022-07-29T02:23:52;3.72;;;1.92;;
1294;SDS011;640;48.310;11.728;2022-07-29T02:26:24;3.65;;;2.15;;
1294;SDS011;640;48.310;11.728;2022-07-29T02:28:54;3.50;;;2.03;;
1294;SDS011;640;48.310;11.728;2022-07-29T02:31:26;3.17;;;2.22;;
1294;SDS011;640;48.310;11.728;2022-07-29T02:33:57;3.88;;;2.10;;
1294;SDS011;640;48.310;11.728;2022-07-29T02:36:27;2.60;;;1.92;;
1294;SDS011;640;48.310;11.728;2022-07-29T02:38:56;3.03;;;2.10;;
1294;SDS011;640;48.310;11.728;2022-07-29T02:41:28;3.08;;;2.15;;
1294;SDS011;640;48.310;11.728;2022-07-29T02:44:01;3.20;;;2.15;;
1294;SDS011;640;48.310;11.728;2022-07-29T02:46:33;5.47;;;2.20;;
1294;SDS011;640;48.310;11.728;2022-07-29T02:49:06;2.60;;;2.30;;
1294;SDS011;640;48.310;11.728;2022-07-29T02:51:40;4.63;;;2.50;;
1294;SDS011;640;48.310;11.728;2022-07-29T02:54:13;3.50;;;2.40;;
1294;SDS011;640;48.310;11.728;2022-07-29T02:56:46;4.85;;;2.42;;
1294;SDS011;640;48.310;11.728;2022-07-29T02:59:16;3.38;;;2.50;;
1294;SDS011;640;48.310;11.728;2022-07-29T03:01:50;3.65;;;2.50;;
1294;SDS011;640;48.310;11.728;2022-07-29T03:04:20;3.33;;;2.17;;
1294;SDS011;640;48.310;11.728;2022-07-29T03:06:50;4.00;;;2.33;;
1294;SDS011;640;48.310;11.728;2022-07-29T03:09:20;2.65;;;2.30;;
1294;SDS011;640;48.310;11.728;2022-07-29T03:11:49;4.10;;;2.58;;
1294;SDS011;640;48.310;11.728;2022-07-29T03:14:18;2.85;;;2.40;;
1294;SDS011;640;48.310;11.728;2022-07-29T03:16:47;3.35;;;2.40;;
1294;SDS011;640;48.310;11.728;2022-07-29T03:19:18;3.97;;;2.35;;
1294;SDS011;640;48.310;11.728;2022-07-29T03:21:47;2.97;;;2.42;;
1294;SDS011;640;48.310;11.728;2022-07-29T03:24:29;4.50;;;2.50;;
1294;SDS011;640;48.310;11.728;2022-07-29T03:26:58;3.28;;;2.05;;
1294;SDS011;640;48.310;11.728;2022-07-29T03:29:27;3.45;;;2.40;;
1294;SDS011;640;48.310;11.728;2022-07-29T03:32:00;2.78;;;2.33;;
1294;SDS011;640;48.310;11.728;2022-07-29T03:34:35;4.18;;;2.30;;
1294;SDS011;640;48.310;11.728;2022-07-29T03:37:05;3.17;;;2.42;;
1294;SDS011;640;48.310;11.728;2022-07-29T03:39:35;3.22;;;2.40;;
1294;SDS011;640;48.310;11.728;2022-07-29T03:42:07;3.28;;;2.55;;
1294;SDS011;640;48.310;11.728;2022-07-29T03:44:38;4.07;;;2.40;;
1294;SDS011;640;48.310;11.728;2022-07-29T03:47:08;3.00;;;2.42;;
1294;SDS011;640;48.310;11.728;2022-07-29T03:49:38;7.80;;;2.58;;
1294;SDS011;640;48.310;11.728;2022-07-29T03:52:08;2.75;;;2.20;;
1294;SDS011;640;48.310;11.728;2022-07-29T03:54:37;3.13;;;2.33;;
1294;SDS011;640;48.310;11.728;2022-07-29T03:57:05;2.58;;;2.38;;
1294;SDS011;640;48.310;11.728;2022-07-29T03:59:34;4.68;;;2.50;;
1294;SDS011;640;48.310;11.728;2022-07-29T04:02:03;3.10;;;2.28;;
1294;SDS011;640;48.310;11.728;2022-07-29T04:04:32;2.92;;;2.38;;
1294;SDS011;640;48.310;11.728;2022-07-29T04:07:03;2.92;;;2.60;;
1294;SDS011;640;48.310;11.728;2022-07-29T04:09:32;3.05;;;2.70;;
1294;SDS011;640;48.310;11.728;2022-07-29T04:12:00;3.92;;;2.90;;
1294;SDS011;640;48.310;11.728;2022-07-29T04:14:30;3.53;;;2.90;;
1294;SDS011;640;48.310;11.728;2022-07-29T04:16:59;2.80;;;2.55;;
1294;SDS011;640;48.310;11.728;2022-07-29T04:19:27;3.08;;;2.78;;
1294;SDS011;640;48.310;11.728;2022-07-29T04:21:56;3.10;;;2.80;;
1294;SDS011;640;48.310;11.728;2022-07-29T04:24:26;2.88;;;2.40;;
1294;SDS011;640;48.310;11.728;2022-07-29T04:26:55;6.00;;;2.70;;
1294;SDS011;640;48.310;11.728;2022-07-29T04:29:23;4.25;;;2.80;;
1294;SDS011;640;48.310;11.728;2022-07-29T04:31:52;4.88;;;2.47;;
1294;SDS011;640;48.310;11.728;2022-07-29T04:34:20;3.20;;;2.63;;
1294;SDS011;640;48.310;11.728;2022-07-29T04:36:53;4.55;;;2.90;;
1294;SDS011;640;48.310;11.728;2022-07-29T04:39:22;3.08;;;2.70;;
1294;SDS011;640;48.310;11.728;2022-07-29T04:41:55;2.90;;;2.60;;
1294;SDS011;640;48.310;11.728;2022-07-29T04:44:24;3.95;;;2.88;;
1294;SDS011;640;48.310;11.728;2022-07-29T04:46:55;3.58;;;2.47;;
1294;SDS011;640;48.310;11.728;2022-07-29T04:49:24;3.90;;;3.50;;
1294;SDS011;640;48.310;11.728;2022-07-29T04:51:53;3.83;;;3.53;;
1294;SDS011;640;48.310;11.728;2022-07-29T04:54:21;4.60;;;3.60;;
1294;SDS011;640;48.310;11.728;2022-07-29T04:56:51;6.18;;;3.30;;
1294;SDS011;640;48.310;11.728;2022-07-29T04:59:21;4.38;;;3.10;;
1294;SDS011;640;48.310;11.728;2022-07-29T05:01:49;4.47;;;3.55;;
1294;SDS011;640;48.310;11.728;2022-07-29T05:04:18;3.10;;;2.83;;
1294;SDS011;640;48.310;11.728;2022-07-29T05:06:47;3.20;;;2.80;;
1294;SDS011;640;48.310;11.728;2022-07-29T05:09:15;3.58;;;2.90;;
1294;SDS011;640;48.310;11.728;2022-07-29T05:11:44;3.22;;;2.90;;
1294;SDS011;640;48.310;11.728;2022-07-29T05:14:12;3.17;;;2.60;;
1294;SDS011;640;48.310;11.728;2022-07-29T05:16:43;4.45;;;2.60;;
1294;SDS011;640;48.310;11.728;2022-07-29T05:19:11;3.63;;;2.70;;
1294;SDS011;640;48.310;11.728;2022-07-29T05:21:40;3.08;;;2.20;;
1294;SDS011;640;48.310;11.728;2022-07-29T05:24:09;3.75;;;2.33;;
1294;SDS011;640;48.310;11.728;2022-07-29T05:26:38;2.95;;;2.30;;
1294;SDS011;640;48.310;11.728;2022-07-29T05:29:07;4.35;;;3.08;;
1294;SDS011;640;48.310;11.728;2022-07-29T05:31:57;3.03;;;2.72;;
1294;SDS011;640;48.310;11.728;2022-07-29T05:34:26;4.05;;;2.60;;
1294;SDS011;640;48.310;11.728;2022-07-29T05:36:55;5.53;;;2.70;;
1294;SDS011;640;48.310;11.728;2022-07-29T05:39:23;4.25;;;1.83;;
1294;SDS011;640;48.310;11.728;2022-07-29T05:42:11;3.83;;;2.22;;
1294;SDS011;640;48.310;11.728;2022-07-29T05:44:40;2.20;;;2.00;;
1294;SDS011;640;48.310;11.728;2022-07-29T05:47:10;4.35;;;2.10;;
1294;SDS011;640;48.310;11.728;2022-07-29T05:49:38;2.65;;;1.80;;
1294;SDS011;640;48.310;11.728;2022-07-29T05:52:07;3.38;;;1.70;;
1294;SDS011;640;48.310;11.728;2022-07-29T05:54:35;3.08;;;1.52;;
1294;SDS011;640;48.310;11.728;2022-07-29T05:57:04;3.00;;;1.55;;
1294;SDS011;640;48.310;11.728;2022-07-29T05:59:34;2.28;;;1.60;;
1294;SDS011;640;48.310;11.728;2022-07-29T06:02:03;2.30;;;1.70;;
1294;SDS011;640;48.310;11.728;2022-07-29T06:04:34;2.73;;;1.93;;
1294;SDS011;640;48.310;11.728;2022-07-29T06:07:02;1.85;;;1.60;;
1294;SDS011;640;48.310;11.728;2022-07-29T06:09:31;2.20;;;1.70;;
1294;SDS011;640;48.310;11.728;2022-07-29T06:12:02;2.47;;;1.63;;
1294;SDS011;640;48.310;11.728;2022-07-29T06:14:31;2.63;;;1.67;;
1294;SDS011;640;48.310;11.728;2022-07-29T06:17:00;2.58;;;1.90;;
1294;SDS011;640;48.310;11.728;2022-07-29T06:19:28;5.70;;;2.30;;
1294;SDS011;640;48.310;11.728;2022-07-29T06:21:58;4.35;;;2.00;;
1294;SDS011;640;48.310;11.728;2022-07-29T06:24:27;3.63;;;1.83;;
1294;SDS011;640;48.310;11.728;2022-07-29T06:26:55;3.60;;;1.90;;
1294;SDS011;640;48.310;11.728;2022-07-29T06:29:23;3.92;;;1.98;;
1294;SDS011;640;48.310;11.728;2022-07-29T06:31:52;2.15;;;1.80;;
1294;SDS011;640;48.310;11.728;2022-07-29T06:34:20;2.70;;;1.63;;
1294;SDS011;640;48.310;11.728;2022-07-29T06:36:49;4.63;;;1.73;;
1294;SDS011;640;48.310;11.728;2022-07-29T06:39:21;2.35;;;1.70;;
1294;SDS011;640;48.310;11.728;2022-07-29T06:41:49;2.58;;;1.90;;
1294;SDS011;640;48.310;11.728;2022-07-29T06:44:18;2.15;;;1.73;;
1294;SDS011;640;48.310;11.728;2022-07-29T06:46:46;3.42;;;1.40;;
1294;SDS011;640;48.310;11.728;2022-07-29T06:49:16;3.78;;;1.70;;
1294;SDS011;640;48.310;11.728;2022-07-29T06:51:45;3.13;;;1.70;;
1294;SDS011;640;48.310;11.728;2022-07-29T06:54:13;3.60;;;1.73;;
1294;SDS011;640;48.310;11.728;2022-07-29T06:56:43;2.65;;;1.73;;
1294;SDS011;640;48.310;11.728;2022-07-29T06:59:12;2.40;;;1.50;;
1294;SDS011;640;48.310;11.728;2022-07-29T07:01:42;4.07;;;1.67;;
1294;SDS011;640;48.310;11.728;2022-07-29T07:04:11;3.08;;;1.50;;
1294;SDS011;640;48.310;11.728;2022-07-29T07:06:41;3.05;;;1.52;;
1294;SDS011;640;48.310;11.728;2022-07-29T07:09:09;4.15;;;1.73;;
1294;SDS011;640;48.310;11.728;2022-07-29T07:11:37;2.28;;;1.40;;
1294;SDS011;640;48.310;11.728;2022-07-29T07:14:07;2.45;;;1.63;;
1294;SDS011;640;48.310;11.728;2022-07-29T07:16:36;3.80;;;1.70;;
1294;SDS011;640;48.310;11.728;2022-07-29T07:19:04;5.30;;;1.63;;
1294;SDS011;640;48.310;11.728;2022-07-29T07:21:32;2.33;;;1.83;;
1294;SDS011;640;48.310;11.728;2022-07-29T07:24:02;2.58;;;1.63;;
1294;SDS011;640;48.310;11.728;2022-07-29T07:26:30;2.10;;;1.60;;
1294;SDS011;640;48.310;11.728;2022-07-29T07:28:59;3.03;;;1.73;;
1294;SDS011;640;48.310;11.728;2022-07-29T07:31:29;3.78;;;1.60;;
1294;SDS011;640;48.310;11.728;2022-07-29T07:33:57;2.20;;;1.75;;
1294;SDS011;640;48.310;11.728;2022-07-29T07:36:25;1.50;;;1.33;;
1294;SDS011;640;48.310;11.728;2022-07-29T07:38:54;3.67;;;1.52;;
1294;SDS011;640;48.310;11.728;2022-07-29T07:41:22;1.90;;;1.30;;
1294;SDS011;640;48.310;11.728;2022-07-29T07:43:51;2.10;;;1.30;;
1294;SDS011;640;48.310;11.728;2022-07-29T07:46:19;3.95;;;1.75;;
1294;SDS011;640;48.310;11.728;2022-07-29T07:48:49;2.55;;;1.40;;
1294;SDS011;640;48.310;11.728;2022-07-29T07:51:19;2.75;;;1.70;;
1294;SDS011;640;48.310;11.728;2022-07-29T07:53:47;4.57;;;1.65;;
1294;SDS011;640;48.310;11.728;2022-07-29T07:56:17;3.17;;;1.60;;
1294;SDS011;640;48.310;11.728;2022-07-29T07:58:45;2.25;;;1.60;;
1294;SDS011;640;48.310;11.728;2022-07-29T08:01:14;2.63;;;1.42;;
1294;SDS011;640;48.310;11.728;2022-07-29T08:03:45;2.88;;;1.50;;
1294;SDS011;640;48.310;11.728;2022-07-29T08:06:15;3.67;;;1.50;;
1294;SDS011;640;48.310;11.728;2022-07-29T08:08:43;2.55;;;1.45;;
1294;SDS011;640;48.310;11.728;2022-07-29T08:11:12;2.67;;;1.80;;
1294;SDS011;640;48.310;11.728;2022-07-29T08:13:41;5.93;;;1.85;;
1294;SDS011;640;48.310;11.728;2022-07-29T08:16:10;3.17;;;1.80;;
1294;SDS011;640;48.310;11.728;2022-07-29T08:18:42;4.57;;;1.70;;
1294;SDS011;640;48.310;11.728;2022-07-29T08:21:11;2.85;;;1.60;;
1294;SDS011;640;48.310;11.728;2022-07-29T08:23:43;2.58;;;1.35;;
1294;SDS011;640;48.310;11.728;2022-07-29T08:26:26;2.00;;;1.50;;
1294;SDS011;640;48.310;11.728;2022-07-29T08:28:55;2.30;;;1.52;;
1294;SDS011;640;48.310;11.728;2022-07-29T08:31:23;2.53;;;1.60;;
1294;SDS011;640;48.310;11.728;2022-07-29T08:33:51;2.70;;;1.60;;
1294;SDS011;640;48.310;11.728;2022-07-29T08:36:20;2.15;;;1.60;;
1294;SDS011;640;48.310;11.728;2022-07-29T08:38:51;3.40;;;1.85;;
1294;SDS011;640;48.310;11.728;2022-07-29T08:41:20;3.33;;;1.50;;
1294;SDS011;640;48.310;11.728;2022-07-29T08:43:49;2.08;;;1.70;;
1294;SDS011;640;48.310;11.728;2022-07-29T08:46:37;2.83;;;1.73;;
1294;SDS011;640;48.310;11.728;2022-07-29T08:49:06;2.85;;;1.58;;
1294;SDS011;640;48.310;11.728;2022-07-29T08:51:35;2.67;;;1.52;;
1294;SDS011;640;48.310;11.728;2022-07-29T08:54:17;3.50;;;1.55;;
1294;SDS011;640;48.310;11.728;2022-07-29T08:56:48;2.67;;;1.90;;
1294;SDS011;640;48.310;11.728;2022-07-29T08:59:17;4.57;;;1.67;;
1294;SDS011;640;48.310;11.728;2022-07-29T09:01:48;3.80;;;1.52;;
1294;SDS011;640;48.310;11.728;2022-07-29T09:04:21;2.22;;;1.67;;
1294;SDS011;640;48.310;11.728;2022-07-29T09:06:53;2.90;;;1.70;;
1294;SDS011;640;48.310;11.728;2022-07-29T09:09:24;3.28;;;2.00;;
1294;SDS011;640;48.310;11.728;2022-07-29T09:11:53;7.03;;;1.98;;
1294;SDS011;640;48.310;11.728;2022-07-29T09:14:22;1.70;;;1.60;;
1294;SDS011;640;48.310;11.728;2022-07-29T09:16:52;2.50;;;1.83;;
1294;SDS011;640;48.310;11.728;2022-07-29T09:19:25;3.08;;;1.70;;
1294;SDS011;640;48.310;11.728;2022-07-29T09:21:55;3.10;;;1.67;;
1294;SDS011;640;48.310;11.728;2022-07-29T09:27:18;2.35;;;1.70;;
1294;SDS011;640;48.310;11.728;2022-07-29T09:29:58;4.50;;;1.90;;
1294;SDS011;640;48.310;11.728;2022-07-29T09:32:27;2.53;;;1.80;;
1294;SDS011;640;48.310;11.728;2022-07-29T09:35:18;3.53;;;1.67;;
1294;SDS011;640;48.310;11.728;2022-07-29T09:37:47;2.80;;;1.92;;
1294;SDS011;640;48.310;11.728;2022-07-29T09:40:19;2.47;;;1.60;;
1294;SDS011;640;48.310;11.728;2022-07-29T09:42:50;3.45;;;2.00;;
1294;SDS011;640;48.310;11.728;2022-07-29T09:45:26;2.53;;;1.70;;
1294;SDS011;640;48.310;11.728;2022-07-29T09:47:56;2.15;;;1.80;;
1294;SDS011;640;48.310;11.728;2022-07-29T09:50:36;3.25;;;1.73;;
1294;SDS011;640;48.310;11.728;2022-07-29T09:53:06;2.47;;;1.75;;
1294;SDS011;640;48.310;11.728;2022-07-29T09:55:47;2.05;;;1.88;;
1294;SDS011;640;48.310;11.728;2022-07-29T09:58:18;6.45;;;2.03;;
1294;SDS011;640;48.310;11.728;2022-07-29T10:00:48;3.45;;;1.83;;
1294;SDS011;640;48.310;11.728;2022-07-29T10:03:18;3.60;;;1.92;;
1294;SDS011;640;48.310;11.728;2022-07-29T10:06:03;2.25;;;1.90;;
1294;SDS011;640;48.310;11.728;2022-07-29T10:08:32;4.70;;;2.20;;
1294;SDS011;640;48.310;11.728;2022-07-29T10:11:09;2.45;;;2.22;;
1294;SDS011;640;48.310;11.728;2022-07-29T10:13:39;3.42;;;2.25;;
1294;SDS011;640;48.310;11.728;2022-07-29T10:16:08;2.72;;;2.28;;
1294;SDS011;640;48.310;11.728;2022-07-29T10:18:40;3.30;;;2.38;;
1294;SDS011;640;48.310;11.728;2022-07-29T10:21:08;4.03;;;2.37;;
1294;SDS011;640;48.310;11.728;2022-07-29T10:23:57;3.60;;;2.30;;
1294;SDS011;640;48.310;11.728;2022-07-29T10:28:57;3.22;;;2.80;;
1294;SDS011;640;48.310;11.728;2022-07-29T10:31:27;3.85;;;2.63;;
1294;SDS011;640;48.310;11.728;2022-07-29T10:33:59;3.60;;;2.70;;
1294;SDS011;640;48.310;11.728;2022-07-29T10:36:38;2.90;;;2.60;;
1294;SDS011;640;48.310;11.728;2022-07-29T10:39:17;6.45;;;2.55;;
1294;SDS011;640;48.310;11.728;2022-07-29T10:42:13;2.97;;;2.45;;
1294;SDS011;640;48.310;11.728;2022-07-29T10:44:55;4.82;;;2.63;;
1294;SDS011;640;48.310;11.728;2022-07-29T10:47:25;4.22;;;2.78;;
1294;SDS011;640;48.310;11.728;2022-07-29T10:49:57;3.60;;;2.60;;
1294;SDS011;640;48.310;11.728;2022-07-29T10:55:30;4.32;;;2.60;;
1294;SDS011;640;48.310;11.728;2022-07-29T11:00:51;4.53;;;2.40;;
1294;SDS011;640;48.310;11.728;2022-07-29T11:06:16;4.45;;;2.65;;
1294;SDS011;640;48.310;11.728;2022-07-29T11:12:03;4.72;;;2.80;;
1294;SDS011;640;48.310;11.728;2022-07-29T11:14:56;4.68;;;3.08;;
1294;SDS011;640;48.310;11.728;2022-07-29T11:17:25;2.80;;;2.50;;
1294;SDS011;640;48.310;11.728;2022-07-29T11:20:33;3.55;;;2.70;;
1294;SDS011;640;48.310;11.728;2022-07-29T11:23:17;5.05;;;3.20;;
1294;SDS011;640;48.310;11.728;2022-07-29T11:26:12;3.70;;;2.47;;
1294;SDS011;640;48.310;11.728;2022-07-29T11:28:51;4.00;;;2.90;;
1294;SDS011;640;48.310;11.728;2022-07-29T11:31:33;4.07;;;2.92;;
1294;SDS011;640;48.310;11.728;2022-07-29T11:34:15;3.30;;;2.65;;
1294;SDS011;640;48.310;11.728;2022-07-29T11:40:12;6.80;;;3.30;;
1294;SDS011;640;48.310;11.728;2022-07-29T11:42:47;4.35;;;2.85;;
1294;SDS011;640;48.310;11.728;2022-07-29T11:45:21;3.75;;;2.88;;
1294;SDS011;640;48.310;11.728;2022-07-29T11:48:18;3.85;;;2.80;;
1294;SDS011;640;48.310;11.728;2022-07-29T11:50:58;3.80;;;2.85;;
1294;SDS011;640;48.310;11.728;2022-07-29T11:53:28;6.38;;;2.33;;
1294;SDS011;640;48.310;11.728;2022-07-29T11:58:28;3.58;;;2.50;;
1294;SDS011;640;48.310;11.728;2022-07-29T12:00:57;6.00;;;2.70;;
1294;SDS011;640;48.310;11.728;2022-07-29T12:03:32;3.13;;;2.20;;
1294;SDS011;640;48.310;11.728;2022-07-29T12:06:03;4.38;;;2.40;;
1294;SDS011;640;48.310;11.728;2022-07-29T12:09:00;5.68;;;2.20;;
1294;SDS011;640;48.310;11.728;2022-07-29T12:11:30;4.60;;;2.25;;
1294;SDS011;640;48.310;11.728;2022-07-29T12:13:59;5.63;;;2.40;;
1294;SDS011;640;48.310;11.728;2022-07-29T12:16:34;2.95;;;1.90;;
1294;SDS011;640;48.310;11.728;2022-07-29T12:19:05;4.30;;;1.88;;
1294;SDS011;640;48.310;11.728;2022-07-29T12:21:43;4.50;;;1.90;;
1294;SDS011;640;48.310;11.728;2022-07-29T12:24:25;4.32;;;1.95;;
1294;SDS011;640;48.310;11.728;2022-07-29T12:26:54;4.53;;;2.15;;
1294;SDS011;640;48.310;11.728;2022-07-29T12:32:01;2.25;;;1.98;;
1294;SDS011;640;48.310;11.728;2022-07-29T12:34:46;3.30;;;1.83;;
1294;SDS011;640;48.310;11.728;2022-07-29T12:37:14;2.63;;;1.98;;
1294;SDS011;640;48.310;11.728;2022-07-29T12:39:43;3.22;;;2.00;;
1294;SDS011;640;48.310;11.728;2022-07-29T12:42:12;2.58;;;1.80;;
1294;SDS011;640;48.310;11.728;2022-07-29T12:44:47;3.58;;;2.20;;
1294;SDS011;640;48.310;11.728;2022-07-29T12:47:17;4.50;;;2.35;;
1294;SDS011;640;48.310;11.728;2022-07-29T12:49:47;4.80;;;2.17;;
1294;SDS011;640;48.310;11.728;2022-07-29T12:52:23;5.53;;;2.58;;
1294;SDS011;640;48.310;11.728;2022-07-29T12:54:51;2.88;;;2.00;;
1294;SDS011;640;48.310;11.728;2022-07-29T12:57:20;2.70;;;1.90;;
1294;SDS011;640;48.310;11.728;2022-07-29T13:00:02;4.15;;;2.25;;
1294;SDS011;640;48.310;11.728;2022-07-29T13:02:34;2.95;;;1.95;;
1294;SDS011;640;48.310;11.728;2022-07-29T13:05:05;3.50;;;2.13;;
1294;SDS011;640;48.310;11.728;2022-07-29T13:07:35;3.25;;;2.40;;
1294;SDS011;640;48.310;11.728;2022-07-29T13:10:21;2.75;;;2.00;;
1294;SDS011;640;48.310;11.728;2022-07-29T13:13:03;2.97;;;2.22;;
1294;SDS011;640;48.310;11.728;2022-07-29T13:15:33;3.80;;;2.17;;
1294;SDS011;640;48.310;11.728;2022-07-29T13:18:02;3.83;;;2.00;;
1294;SDS011;640;48.310;11.728;2022-07-29T13:20:33;2.25;;;1.90;;
1294;SDS011;640;48.310;11.728;2022-07-29T13:23:02;3.40;;;2.33;;
1294;SDS011;640;48.310;11.728;2022-07-29T13:25:31;4.38;;;2.13;;
1294;SDS011;640;48.310;11.728;2022-07-29T13:28:01;2.30;;;2.10;;
1294;SDS011;640;48.310;11.728;2022-07-29T13:30:29;4.00;;;2.42;;
1294;SDS011;640;48.310;11.728;2022-07-29T13:32:57;4.18;;;2.30;;
1294;SDS011;640;48.310;11.728;2022-07-29T13:35:26;4.95;;;2.33;;
1294;SDS011;640;48.310;11.728;2022-07-29T13:37:57;3.90;;;2.30;;
1294;SDS011;640;48.310;11.728;2022-07-29T13:42:55;3.90;;;2.35;;
1294;SDS011;640;48.310;11.728;2022-07-29T13:45:24;2.72;;;2.25;;
1294;SDS011;640;48.310;11.728;2022-07-29T13:47:55;4.32;;;2.40;;
1294;SDS011;640;48.310;11.728;2022-07-29T13:50:23;3.45;;;2.35;;
1294;SDS011;640;48.310;11.728;2022-07-29T13:52:52;4.15;;;2.30;;
1294;SDS011;640;48.310;11.728;2022-07-29T13:55:22;4.43;;;2.40;;
1294;SDS011;640;48.310;11.728;2022-07-29T13:57:50;3.15;;;2.20;;
1294;SDS011;640;48.310;11.728;2022-07-29T14:00:18;4.10;;;2.45;;
1294;SDS011;640;48.310;11.728;2022-07-29T14:02:47;3.05;;;2.60;;
1294;SDS011;640;48.310;11.728;2022-07-29T14:05:15;3.78;;;2.30;;
1294;SDS011;640;48.310;11.728;2022-07-29T14:07:44;5.40;;;2.40;;
1294;SDS011;640;48.310;11.728;2022-07-29T14:10:12;3.00;;;2.50;;
1294;SDS011;640;48.310;11.728;2022-07-29T14:12:47;4.15;;;2.20;;
1294;SDS011;640;48.310;11.728;2022-07-29T14:15:15;2.60;;;2.22;;
1294;SDS011;640;48.310;11.728;2022-07-29T14:17:44;4.78;;;2.20;;
1294;SDS011;640;48.310;11.728;2022-07-29T14:20:12;2.70;;;2.30;;
1294;SDS011;640;48.310;11.728;2022-07-29T14:22:43;3.38;;;2.30;;
1294;SDS011;640;48.310;11.728;2022-07-29T14:25:11;2.72;;;2.25;;
1294;SDS011;640;48.310;11.728;2022-07-29T14:27:41;3.28;;;2.40;;
1294;SDS011;640;48.310;11.728;2022-07-29T14:30:12;6.78;;;2.55;;
1294;SDS011;640;48.310;11.728;2022-07-29T14:32:41;4.25;;;1.90;;
1294;SDS011;640;48.310;11.728;2022-07-29T14:35:09;4.03;;;2.17;;
1294;SDS011;640;48.310;11.728;2022-07-29T14:37:38;3.15;;;2.40;;
1294;SDS011;640;48.310;11.728;2022-07-29T14:40:07;3.65;;;2.45;;
1294;SDS011;640;48.310;11.728;2022-07-29T14:42:36;5.32;;;2.00;;
1294;SDS011;640;48.310;11.728;2022-07-29T14:45:06;3.53;;;2.25;;
1294;SDS011;640;48.310;11.728;2022-07-29T14:50:05;2.95;;;2.00;;
1294;SDS011;640;48.310;11.728;2022-07-29T14:52:35;3.22;;;2.10;;
1294;SDS011;640;48.310;11.728;2022-07-29T14:55:04;5.22;;;2.40;;
1294;SDS011;640;48.310;11.728;2022-07-29T14:57:46;2.78;;;2.22;;
1294;SDS011;640;48.310;11.728;2022-07-29T15:00:15;3.47;;;2.20;;
1294;SDS011;640;48.310;11.728;2022-07-29T15:02:50;3.00;;;2.38;;
1294;SDS011;640;48.310;11.728;2022-07-29T15:05:28;5.65;;;2.53;;
1294;SDS011;640;48.310;11.728;2022-07-29T15:07:56;2.92;;;2.15;;
1294;SDS011;640;48.310;11.728;2022-07-29T15:10:25;5.15;;;2.33;;
1294;SDS011;640;48.310;11.728;2022-07-29T15:12:54;4.85;;;2.40;;
1294;SDS011;640;48.310;11.728;2022-07-29T15:15:22;4.35;;;2.20;;
1294;SDS011;640;48.310;11.728;2022-07-29T15:17:52;4.75;;;2.60;;
1294;SDS011;640;48.310;11.728;2022-07-29T15:20:21;3.80;;;2.33;;
1294;SDS011;640;48.310;11.728;2022-07-29T15:22:52;3.53;;;2.13;;
1294;SDS011;640;48.310;11.728;2022-07-29T15:27:50;4.30;;;2.25;;
1294;SDS011;640;48.310;11.728;2022-07-29T15:30:24;4.80;;;2.25;;
1294;SDS011;640;48.310;11.728;2022-07-29T15:33:01;3.63;;;2.38;;
1294;SDS011;640;48.310;11.728;2022-07-29T15:35:30;2.85;;;2.38;;
1294;SDS011;640;48.310;11.728;2022-07-29T15:38:05;2.65;;;2.30;;
1294;SDS011;640;48.310;11.728;2022-07-29T15:40:35;5.22;;;2.60;;
1294;SDS011;640;48.310;11.728;2022-07-29T15:43:04;3.90;;;2.30;;
1294;SDS011;640;48.310;11.728;2022-07-29T15:45:36;3.88;;;2.53;;
1294;SDS011;640;48.310;11.728;2022-07-29T15:48:08;4.05;;;2.60;;
1294;SDS011;640;48.310;11.728;2022-07-29T15:50:40;8.90;;;2.58;;
1294;SDS011;640;48.310;11.728;2022-07-29T15:53:13;3.85;;;2.60;;
1294;SDS011;640;48.310;11.728;2022-07-29T15:55:41;8.13;;;2.70;;
1294;SDS011;640;48.310;11.728;2022-07-29T15:58:10;4.70;;;2.78;;
1294;SDS011;640;48.310;11.728;2022-07-29T16:00:38;7.00;;;2.90;;
1294;SDS011;640;48.310;11.728;2022-07-29T16:03:08;3.63;;;2.60;;
1294;SDS011;640;48.310;11.728;2022-07-29T16:05:37;3.35;;;2.60;;
1294;SDS011;640;48.310;11.728;2022-07-29T16:08:05;4.35;;;2.58;;
1294;SDS011;640;48.310;11.728;2022-07-29T16:10:33;4.47;;;2.67;;
1294;SDS011;640;48.310;11.728;2022-07-29T16:13:02;3.53;;;2.70;;
1294;SDS011;640;48.310;11.728;2022-07-29T16:15:30;4.05;;;2.88;;
1294;SDS011;640;48.310;11.728;2022-07-29T16:17:59;3.63;;;2.65;;